Mount Vernon, KY (40456)

1:19 AM EST on February 09, 2016 (GMT -0500)
Denny Subdivision | | Change Station
CLOSE
Current Station
Personal Weather Station
Location: Mount Vernon, KY
Elevation: 1181 ft
Nearby Weather Stations
Active Advisory: Winter Weather Advisory

Elev 1181 ft 37.31 °N, 84.39 °W | Updated 1 second ago

Snow
Snow
22.5 °F
Feels Like 10 °F
N
13.9
Wind Variable Wind from West
Gusts 15.0 mph

Today
High -- | Low -- °F
--% Chance of Precip.
Yesterday
High -- | Low -- °F
Precip. -- in
Pressure 29.78 in
Visibility 10.0 miles
Clouds Few 1400 ft
Mostly Cloudy 7500 ft
Overcast 12000 ft
Windchill 10 °F
Dew Point 19 °F
Humidity 86%
Rainfall 0.00 in
Snow Depth Not available.
7:33 AM 6:10 PM
New Moon, 1% visible
METAR KLOZ 090553Z AUTO 29011KT 10SM FEW014 BKN075 OVC120 M03/M07 A2975 RMK AO2 SNB08E21 SLP083 P0000 60001 T10331067 10000 21033 58004
Pressure 29.78 in
Visibility 10.0 miles
Clouds Few 1400 ft
Mostly Cloudy 7500 ft
Overcast 12000 ft
Windchill 10 °F
Dew Point 19 °F
Humidity 86%
Rainfall 0.00 in
Snow Depth Not available.
7:33 AM 6:10 PM
New Moon, 1% visible
METAR KLOZ 090553Z AUTO 29011KT 10SM FEW014 BKN075 OVC120 M03/M07 A2975 RMK AO2 SNB08E21 SLP083 P0000 60001 T10331067 10000 21033 58004

10-Day Weather Forecast

Almanac

Astronomy

Feb. 09, 2016 Rise Set
Actual Time
Civil Twilight
Nautical Twilight
Astronomical Twilight
Moon
Length of Visible Light
Length of Day
Tomorrow will be .
, % of the Moon is Illuminated

Today's Extremes

State Highs State Lows

Community

WunderPhotos

Upload Photos

1,891,571 photos uploaded!

WunderBlog® & News

Nearby

Air Quality

  Air Quality AQ Index Pollutant
Not available.

Snow Depth

Station Depth Elevation

Earthquake Activity

City Distance Mag. Time & Date
Minimum magnitude displayed is 2.5.

Coastal Water Temperatures

Place Temperature

Stations

Nearby Weather Stations

Station Location Temp. Windchill Dew Point Humidity Wind Precip. Elev Updated Type
                   

Watches & Warnings

Winter Weather Advisory
Issued: 10:28 PM EST Feb. 8, 2016 – National Weather Service

... Winter Weather Advisory remains in effect until 6 PM EST
Tuesday...

* periods of snow showers will continue through Tuesday. Snow
showers will then taper off into Tuesday night.

* Light snow will accumulate over a prolonged period... with totals
from tonight through late Tuesday in the 1 to 3 inch range for
most locations.

* Roads and walkways will become slippery... especially those
which are untreated. Localized heavy snow showers may also
bring greatly reduced visibility at times.

Precautionary/preparedness actions...

A Winter Weather Advisory for snow means that periods of snow
will cause primarily travel difficulties. Be prepared for snow
covered roads and limited visibilities... and use caution while
driving.